sensor_id;sensor_type;location;lat;lon;timestamp;temperature;humidity
3360;DHT22;1693;49.602;11.046;2023-02-03T00:00:55;5.50;99.90
3360;DHT22;1693;49.602;11.046;2023-02-03T00:03:22;5.50;99.90
3360;DHT22;1693;49.602;11.046;2023-02-03T00:05:49;5.50;99.90
3360;DHT22;1693;49.602;11.046;2023-02-03T00:08:16;5.50;99.90
3360;DHT22;1693;49.602;11.046;2023-02-03T00:10:44;5.60;99.90
3360;DHT22;1693;49.602;11.046;2023-02-03T00:13:14;5.50;99.90
3360;DHT22;1693;49.602;11.046;2023-02-03T00:15:41;5.50;99.90
3360;DHT22;1693;49.602;11.046;2023-02-03T00:18:08;5.50;99.90
3360;DHT22;1693;49.602;11.046;2023-02-03T00:20:35;5.50;99.90
3360;DHT22;1693;49.602;11.046;2023-02-03T00:23:03;5.40;99.90
3360;DHT22;1693;49.602;11.046;2023-02-03T00:25:31;5.50;99.90
3360;DHT22;1693;49.602;11.046;2023-02-03T00:27:58;5.40;99.90
3360;DHT22;1693;49.602;11.046;2023-02-03T00:30:26;5.50;99.90
3360;DHT22;1693;49.602;11.046;2023-02-03T00:32:53;5.50;99.90
3360;DHT22;1693;49.602;11.046;2023-02-03T00:35:21;5.50;99.90
3360;DHT22;1693;49.602;11.046;2023-02-03T00:37:50;5.50;99.90
3360;DHT22;1693;49.602;11.046;2023-02-03T00:40:18;5.40;99.90
3360;DHT22;1693;49.602;11.046;2023-02-03T00:42:45;5.50;99.90
3360;DHT22;1693;49.602;11.046;2023-02-03T00:45:13;5.40;99.90
3360;DHT22;1693;49.602;11.046;2023-02-03T00:47:41;5.50;99.90
3360;DHT22;1693;49.602;11.046;2023-02-03T00:50:09;5.40;99.90
3360;DHT22;1693;49.602;11.046;2023-02-03T00:52:37;5.50;99.90
3360;DHT22;1693;49.602;11.046;2023-02-03T00:55:04;5.50;99.90
3360;DHT22;1693;49.602;11.046;2023-02-03T00:57:32;5.50;99.90
3360;DHT22;1693;49.602;11.046;2023-02-03T00:59:59;5.50;99.90
3360;DHT22;1693;49.602;11.046;2023-02-03T01:02:26;5.50;99.90
3360;DHT22;1693;49.602;11.046;2023-02-03T01:04:54;5.50;99.90
3360;DHT22;1693;49.602;11.046;2023-02-03T01:07:22;5.50;99.90
3360;DHT22;1693;49.602;11.046;2023-02-03T01:09:49;5.50;99.90
3360;DHT22;1693;49.602;11.046;2023-02-03T01:12:16;5.50;99.90
3360;DHT22;1693;49.602;11.046;2023-02-03T01:14:43;5.60;99.90
3360;DHT22;1693;49.602;11.046;2023-02-03T01:17:10;5.50;99.90
3360;DHT22;1693;49.602;11.046;2023-02-03T01:19:37;5.50;99.90
3360;DHT22;1693;49.602;11.046;2023-02-03T01:22:05;5.50;99.90
3360;DHT22;1693;49.602;11.046;2023-02-03T01:24:32;5.50;99.90
3360;DHT22;1693;49.602;11.046;2023-02-03T01:27:00;5.60;99.90
3360;DHT22;1693;49.602;11.046;2023-02-03T01:29:27;5.50;99.90
3360;DHT22;1693;49.602;11.046;2023-02-03T01:31:54;5.50;99.90
3360;DHT22;1693;49.602;11.046;2023-02-03T01:34:22;5.50;99.90
3360;DHT22;1693;49.602;11.046;2023-02-03T01:36:48;5.50;99.90
3360;DHT22;1693;49.602;11.046;2023-02-03T01:39:17;5.50;99.90
3360;DHT22;1693;49.602;11.046;2023-02-03T01:41:44;5.50;99.90
3360;DHT22;1693;49.602;11.046;2023-02-03T01:44:40;5.50;99.90
3360;DHT22;1693;49.602;11.046;2023-02-03T01:47:16;5.60;99.90
3360;DHT22;1693;49.602;11.046;2023-02-03T01:49:47;5.60;99.90
3360;DHT22;1693;49.602;11.046;2023-02-03T01:52:15;5.60;99.90
3360;DHT22;1693;49.602;11.046;2023-02-03T01:54:46;5.50;99.90
3360;DHT22;1693;49.602;11.046;2023-02-03T01:57:17;5.50;99.90
3360;DHT22;1693;49.602;11.046;2023-02-03T01:59:47;5.50;99.90
3360;DHT22;1693;49.602;11.046;2023-02-03T02:02:15;5.60;99.90
3360;DHT22;1693;49.602;11.046;2023-02-03T02:04:51;5.60;99.90
3360;DHT22;1693;49.602;11.046;2023-02-03T02:07:23;5.60;99.90
3360;DHT22;1693;49.602;11.046;2023-02-03T02:09:51;5.60;99.90
3360;DHT22;1693;49.602;11.046;2023-02-03T02:12:19;5.60;99.90
3360;DHT22;1693;49.602;11.046;2023-02-03T02:14:46;5.60;99.90
3360;DHT22;1693;49.602;11.046;2023-02-03T02:17:24;5.60;99.90
3360;DHT22;1693;49.602;11.046;2023-02-03T02:20:33;5.60;99.90
3360;DHT22;1693;49.602;11.046;2023-02-03T02:29:37;5.60;99.90
3360;DHT22;1693;49.602;11.046;2023-02-03T02:32:23;5.60;99.90
3360;DHT22;1693;49.602;11.046;2023-02-03T02:35:03;5.60;99.90
3360;DHT22;1693;49.602;11.046;2023-02-03T02:37:40;5.60;99.90
3360;DHT22;1693;49.602;11.046;2023-02-03T02:40:18;5.70;99.90
3360;DHT22;1693;49.602;11.046;2023-02-03T02:43:00;5.70;99.90
3360;DHT22;1693;49.602;11.046;2023-02-03T02:45:41;5.60;99.90
3360;DHT22;1693;49.602;11.046;2023-02-03T02:48:19;5.60;99.90
3360;DHT22;1693;49.602;11.046;2023-02-03T02:50:51;5.70;99.90
3360;DHT22;1693;49.602;11.046;2023-02-03T02:53:24;5.70;99.90
3360;DHT22;1693;49.602;11.046;2023-02-03T02:55:53;5.60;99.90
3360;DHT22;1693;49.602;11.046;2023-02-03T02:58:23;5.60;99.90
3360;DHT22;1693;49.602;11.046;2023-02-03T03:00:57;5.70;99.90
3360;DHT22;1693;49.602;11.046;2023-02-03T03:03:33;5.70;99.90
3360;DHT22;1693;49.602;11.046;2023-02-03T03:06:02;5.70;99.90
3360;DHT22;1693;49.602;11.046;2023-02-03T03:08:34;5.70;99.90
3360;DHT22;1693;49.602;11.046;2023-02-03T03:11:04;5.70;99.90
3360;DHT22;1693;49.602;11.046;2023-02-03T03:13:35;5.80;99.90
3360;DHT22;1693;49.602;11.046;2023-02-03T03:16:06;5.70;99.90
3360;DHT22;1693;49.602;11.046;2023-02-03T03:18:40;5.70;99.90
3360;DHT22;1693;49.602;11.046;2023-02-03T03:21:15;5.70;99.90
3360;DHT22;1693;49.602;11.046;2023-02-03T03:23:45;5.70;99.90
3360;DHT22;1693;49.602;11.046;2023-02-03T03:26:16;5.70;99.90
3360;DHT22;1693;49.602;11.046;2023-02-03T03:28:47;5.70;99.90
3360;DHT22;1693;49.602;11.046;2023-02-03T03:31:16;5.70;99.90
3360;DHT22;1693;49.602;11.046;2023-02-03T03:33:47;5.70;99.90
3360;DHT22;1693;49.602;11.046;2023-02-03T03:36:22;5.70;99.90
3360;DHT22;1693;49.602;11.046;2023-02-03T03:38:54;5.70;99.90
3360;DHT22;1693;49.602;11.046;2023-02-03T03:41:31;5.70;99.90
3360;DHT22;1693;49.602;11.046;2023-02-03T03:44:03;5.80;99.90
3360;DHT22;1693;49.602;11.046;2023-02-03T03:46:39;5.80;99.90
3360;DHT22;1693;49.602;11.046;2023-02-03T03:49:10;5.80;99.90
3360;DHT22;1693;49.602;11.046;2023-02-03T03:51:40;5.80;99.90
3360;DHT22;1693;49.602;11.046;2023-02-03T03:54:12;5.80;99.90
3360;DHT22;1693;49.602;11.046;2023-02-03T03:56:45;5.80;99.90
3360;DHT22;1693;49.602;11.046;2023-02-03T03:59:14;5.80;99.90
3360;DHT22;1693;49.602;11.046;2023-02-03T04:01:42;5.90;99.90
3360;DHT22;1693;49.602;11.046;2023-02-03T04:04:12;5.90;99.90
3360;DHT22;1693;49.602;11.046;2023-02-03T04:06:41;5.90;99.90
3360;DHT22;1693;49.602;11.046;2023-02-03T04:09:09;5.90;99.90
3360;DHT22;1693;49.602;11.046;2023-02-03T04:11:36;5.90;99.90
3360;DHT22;1693;49.602;11.046;2023-02-03T04:14:20;5.90;99.90
3360;DHT22;1693;49.602;11.046;2023-02-03T04:16:48;5.90;99.90
3360;DHT22;1693;49.602;11.046;2023-02-03T04:19:21;5.90;99.90
3360;DHT22;1693;49.602;11.046;2023-02-03T04:21:49;6.00;99.90
3360;DHT22;1693;49.602;11.046;2023-02-03T04:24:18;6.00;99.90
3360;DHT22;1693;49.602;11.046;2023-02-03T04:26:46;5.90;99.90
3360;DHT22;1693;49.602;11.046;2023-02-03T04:29:14;6.00;99.90
3360;DHT22;1693;49.602;11.046;2023-02-03T04:31:41;6.00;99.90
3360;DHT22;1693;49.602;11.046;2023-02-03T04:34:08;6.00;99.90
3360;DHT22;1693;49.602;11.046;2023-02-03T04:36:37;6.00;99.90
3360;DHT22;1693;49.602;11.046;2023-02-03T04:39:05;6.00;99.90
3360;DHT22;1693;49.602;11.046;2023-02-03T04:41:34;6.00;99.90
3360;DHT22;1693;49.602;11.046;2023-02-03T04:44:02;6.00;99.90
3360;DHT22;1693;49.602;11.046;2023-02-03T04:46:29;6.00;99.90
3360;DHT22;1693;49.602;11.046;2023-02-03T04:48:56;6.10;99.90
3360;DHT22;1693;49.602;11.046;2023-02-03T04:51:23;6.10;99.90
3360;DHT22;1693;49.602;11.046;2023-02-03T04:53:52;6.10;99.90
3360;DHT22;1693;49.602;11.046;2023-02-03T04:56:19;6.10;99.90
3360;DHT22;1693;49.602;11.046;2023-02-03T04:58:46;6.00;99.90
3360;DHT22;1693;49.602;11.046;2023-02-03T05:01:13;6.00;99.90
3360;DHT22;1693;49.602;11.046;2023-02-03T05:03:43;6.00;99.90
3360;DHT22;1693;49.602;11.046;2023-02-03T05:06:10;6.00;99.90
3360;DHT22;1693;49.602;11.046;2023-02-03T05:08:37;6.00;99.90
3360;DHT22;1693;49.602;11.046;2023-02-03T05:11:08;6.00;99.90
3360;DHT22;1693;49.602;11.046;2023-02-03T05:13:37;6.00;99.90
3360;DHT22;1693;49.602;11.046;2023-02-03T05:16:07;5.90;99.90
3360;DHT22;1693;49.602;11.046;2023-02-03T05:18:35;5.90;99.90
3360;DHT22;1693;49.602;11.046;2023-02-03T05:21:05;5.90;99.90
3360;DHT22;1693;49.602;11.046;2023-02-03T05:23:36;5.90;99.90
3360;DHT22;1693;49.602;11.046;2023-02-03T05:26:05;5.90;99.90
3360;DHT22;1693;49.602;11.046;2023-02-03T05:28:34;5.90;99.90
3360;DHT22;1693;49.602;11.046;2023-02-03T05:31:04;5.80;99.90
3360;DHT22;1693;49.602;11.046;2023-02-03T05:33:35;5.80;99.90
3360;DHT22;1693;49.602;11.046;2023-02-03T05:36:03;5.80;99.90
3360;DHT22;1693;49.602;11.046;2023-02-03T05:38:33;5.80;99.90
3360;DHT22;1693;49.602;11.046;2023-02-03T05:41:00;5.80;99.90
3360;DHT22;1693;49.602;11.046;2023-02-03T05:43:51;5.80;99.90
3360;DHT22;1693;49.602;11.046;2023-02-03T05:46:18;5.80;99.90
3360;DHT22;1693;49.602;11.046;2023-02-03T05:48:46;5.80;99.90
3360;DHT22;1693;49.602;11.046;2023-02-03T05:51:17;5.80;99.90
3360;DHT22;1693;49.602;11.046;2023-02-03T05:53:44;5.80;99.90
3360;DHT22;1693;49.602;11.046;2023-02-03T06:01:16;5.70;99.90
3360;DHT22;1693;49.602;11.046;2023-02-03T06:03:44;5.80;99.90
3360;DHT22;1693;49.602;11.046;2023-02-03T06:06:11;5.70;99.90
3360;DHT22;1693;49.602;11.046;2023-02-03T06:08:38;5.70;99.90
3360;DHT22;1693;49.602;11.046;2023-02-03T06:11:05;5.70;99.90
3360;DHT22;1693;49.602;11.046;2023-02-03T06:13:32;5.70;99.90
3360;DHT22;1693;49.602;11.046;2023-02-03T06:15:59;5.70;99.90
3360;DHT22;1693;49.602;11.046;2023-02-03T06:18:28;5.70;99.90
3360;DHT22;1693;49.602;11.046;2023-02-03T06:20:55;5.70;99.90
3360;DHT22;1693;49.602;11.046;2023-02-03T06:23:25;5.70;99.90
3360;DHT22;1693;49.602;11.046;2023-02-03T06:25:52;5.80;99.90
3360;DHT22;1693;49.602;11.046;2023-02-03T06:28:19;5.70;99.90
3360;DHT22;1693;49.602;11.046;2023-02-03T06:30:49;5.80;99.90
3360;DHT22;1693;49.602;11.046;2023-02-03T06:33:16;5.80;99.90
3360;DHT22;1693;49.602;11.046;2023-02-03T06:35:45;5.80;99.90
3360;DHT22;1693;49.602;11.046;2023-02-03T06:38:12;5.80;99.90
3360;DHT22;1693;49.602;11.046;2023-02-03T06:40:39;5.80;99.90
3360;DHT22;1693;49.602;11.046;2023-02-03T06:43:06;5.80;99.90
3360;DHT22;1693;49.602;11.046;2023-02-03T06:45:33;5.90;99.90
3360;DHT22;1693;49.602;11.046;2023-02-03T06:48:00;5.90;99.90
3360;DHT22;1693;49.602;11.046;2023-02-03T06:50:27;5.90;99.90
3360;DHT22;1693;49.602;11.046;2023-02-03T06:52:56;5.80;99.90
3360;DHT22;1693;49.602;11.046;2023-02-03T06:55:23;5.80;99.90
3360;DHT22;1693;49.602;11.046;2023-02-03T06:57:50;5.80;99.90
3360;DHT22;1693;49.602;11.046;2023-02-03T07:00:18;5.70;99.90
3360;DHT22;1693;49.602;11.046;2023-02-03T07:02:49;5.80;99.90
3360;DHT22;1693;49.602;11.046;2023-02-03T07:05:18;5.80;99.90
3360;DHT22;1693;49.602;11.046;2023-02-03T07:07:45;5.90;99.90
3360;DHT22;1693;49.602;11.046;2023-02-03T07:10:13;5.90;99.90
3360;DHT22;1693;49.602;11.046;2023-02-03T07:12:41;5.90;99.90
3360;DHT22;1693;49.602;11.046;2023-02-03T07:15:09;5.90;99.90
3360;DHT22;1693;49.602;11.046;2023-02-03T07:17:36;5.90;99.90
3360;DHT22;1693;49.602;11.046;2023-02-03T07:20:04;5.90;99.90
3360;DHT22;1693;49.602;11.046;2023-02-03T07:22:32;5.90;99.90
3360;DHT22;1693;49.602;11.046;2023-02-03T07:24:59;5.90;99.90
3360;DHT22;1693;49.602;11.046;2023-02-03T07:27:27;5.90;99.90
3360;DHT22;1693;49.602;11.046;2023-02-03T07:29:54;5.90;99.90
3360;DHT22;1693;49.602;11.046;2023-02-03T07:32:21;6.00;99.90
3360;DHT22;1693;49.602;11.046;2023-02-03T07:34:48;5.90;99.90
3360;DHT22;1693;49.602;11.046;2023-02-03T07:37:15;6.00;99.90
3360;DHT22;1693;49.602;11.046;2023-02-03T07:39:42;6.00;99.90
3360;DHT22;1693;49.602;11.046;2023-02-03T07:42:10;6.10;99.90
3360;DHT22;1693;49.602;11.046;2023-02-03T07:44:39;6.00;99.90
3360;DHT22;1693;49.602;11.046;2023-02-03T07:47:06;6.00;99.90
3360;DHT22;1693;49.602;11.046;2023-02-03T07:49:33;6.00;99.90
3360;DHT22;1693;49.602;11.046;2023-02-03T07:52:00;6.10;99.90
3360;DHT22;1693;49.602;11.046;2023-02-03T07:54:27;6.10;99.90
3360;DHT22;1693;49.602;11.046;2023-02-03T07:56:55;6.20;99.90
3360;DHT22;1693;49.602;11.046;2023-02-03T07:59:22;6.20;99.90
3360;DHT22;1693;49.602;11.046;2023-02-03T08:01:51;6.20;99.90
3360;DHT22;1693;49.602;11.046;2023-02-03T08:04:20;6.20;99.90
3360;DHT22;1693;49.602;11.046;2023-02-03T08:06:48;6.20;99.90
3360;DHT22;1693;49.602;11.046;2023-02-03T08:09:15;6.30;99.90
3360;DHT22;1693;49.602;11.046;2023-02-03T08:11:42;6.30;99.90
3360;DHT22;1693;49.602;11.046;2023-02-03T08:14:09;6.20;99.90
3360;DHT22;1693;49.602;11.046;2023-02-03T08:16:36;6.30;99.90
3360;DHT22;1693;49.602;11.046;2023-02-03T08:19:05;6.30;99.90
3360;DHT22;1693;49.602;11.046;2023-02-03T08:21:32;6.30;99.90
3360;DHT22;1693;49.602;11.046;2023-02-03T08:23:59;6.40;99.90
3360;DHT22;1693;49.602;11.046;2023-02-03T08:26:26;6.40;99.90
3360;DHT22;1693;49.602;11.046;2023-02-03T08:28:53;6.40;99.90
3360;DHT22;1693;49.602;11.046;2023-02-03T08:31:20;6.40;99.90
3360;DHT22;1693;49.602;11.046;2023-02-03T08:33:48;6.40;99.90
3360;DHT22;1693;49.602;11.046;2023-02-03T08:36:39;6.50;99.90
3360;DHT22;1693;49.602;11.046;2023-02-03T08:39:25;6.50;99.90
3360;DHT22;1693;49.602;11.046;2023-02-03T08:42:07;6.50;99.90
3360;DHT22;1693;49.602;11.046;2023-02-03T08:44:34;6.50;99.90
3360;DHT22;1693;49.602;11.046;2023-02-03T08:47:05;6.50;99.90
3360;DHT22;1693;49.602;11.046;2023-02-03T08:49:33;6.60;99.90
3360;DHT22;1693;49.602;11.046;2023-02-03T08:52:05;6.60;99.90
3360;DHT22;1693;49.602;11.046;2023-02-03T08:54:33;6.60;99.90
3360;DHT22;1693;49.602;11.046;2023-02-03T08:57:00;6.60;99.90
3360;DHT22;1693;49.602;11.046;2023-02-03T08:59:27;6.50;99.90
3360;DHT22;1693;49.602;11.046;2023-02-03T09:01:56;6.40;99.90
3360;DHT22;1693;49.602;11.046;2023-02-03T09:04:25;6.30;99.90
3360;DHT22;1693;49.602;11.046;2023-02-03T09:06:52;6.30;99.90
3360;DHT22;1693;49.602;11.046;2023-02-03T09:09:21;6.30;99.90
3360;DHT22;1693;49.602;11.046;2023-02-03T09:11:50;6.30;99.90
3360;DHT22;1693;49.602;11.046;2023-02-03T09:14:18;6.30;99.90
3360;DHT22;1693;49.602;11.046;2023-02-03T09:16:45;6.30;99.90
3360;DHT22;1693;49.602;11.046;2023-02-03T09:19:12;6.30;99.90
3360;DHT22;1693;49.602;11.046;2023-02-03T09:21:39;6.20;99.90
3360;DHT22;1693;49.602;11.046;2023-02-03T09:24:07;6.20;99.90
3360;DHT22;1693;49.602;11.046;2023-02-03T09:26:35;6.20;99.90
3360;DHT22;1693;49.602;11.046;2023-02-03T09:29:02;6.30;99.90
3360;DHT22;1693;49.602;11.046;2023-02-03T09:31:30;6.20;99.90
3360;DHT22;1693;49.602;11.046;2023-02-03T09:33:57;6.30;99.90
3360;DHT22;1693;49.602;11.046;2023-02-03T09:36:28;6.30;99.90
3360;DHT22;1693;49.602;11.046;2023-02-03T09:38:58;6.40;99.90
3360;DHT22;1693;49.602;11.046;2023-02-03T09:41:49;6.40;99.90
3360;DHT22;1693;49.602;11.046;2023-02-03T09:44:21;6.40;99.90
3360;DHT22;1693;49.602;11.046;2023-02-03T09:46:52;6.50;99.90
3360;DHT22;1693;49.602;11.046;2023-02-03T09:49:24;6.50;99.90
3360;DHT22;1693;49.602;11.046;2023-02-03T09:51:56;6.60;99.90
3360;DHT22;1693;49.602;11.046;2023-02-03T09:54:29;6.60;99.90
3360;DHT22;1693;49.602;11.046;2023-02-03T09:57:04;6.70;99.90
3360;DHT22;1693;49.602;11.046;2023-02-03T09:59:34;6.70;99.90
3360;DHT22;1693;49.602;11.046;2023-02-03T10:02:10;6.80;99.90
3360;DHT22;1693;49.602;11.046;2023-02-03T10:04:46;6.90;99.90
3360;DHT22;1693;49.602;11.046;2023-02-03T10:07:27;7.00;99.90
3360;DHT22;1693;49.602;11.046;2023-02-03T10:10:01;7.10;99.90
3360;DHT22;1693;49.602;11.046;2023-02-03T10:12:52;7.10;99.90
3360;DHT22;1693;49.602;11.046;2023-02-03T10:15:39;7.20;99.90
3360;DHT22;1693;49.602;11.046;2023-02-03T10:18:13;7.30;99.90
3360;DHT22;1693;49.602;11.046;2023-02-03T10:20:44;7.40;99.90
3360;DHT22;1693;49.602;11.046;2023-02-03T10:23:15;7.40;99.90
3360;DHT22;1693;49.602;11.046;2023-02-03T10:25:48;7.40;99.90
3360;DHT22;1693;49.602;11.046;2023-02-03T10:28:22;7.30;99.90
3360;DHT22;1693;49.602;11.046;2023-02-03T10:30:55;7.30;99.90
3360;DHT22;1693;49.602;11.046;2023-02-03T10:33:25;7.30;99.90
3360;DHT22;1693;49.602;11.046;2023-02-03T10:35:54;7.30;99.90
3360;DHT22;1693;49.602;11.046;2023-02-03T10:38:34;7.30;99.90
3360;DHT22;1693;49.602;11.046;2023-02-03T10:41:06;7.30;99.90
3360;DHT22;1693;49.602;11.046;2023-02-03T10:43:35;7.40;99.90
3360;DHT22;1693;49.602;11.046;2023-02-03T10:46:17;7.40;99.90
3360;DHT22;1693;49.602;11.046;2023-02-03T10:48:45;7.50;99.90
3360;DHT22;1693;49.602;11.046;2023-02-03T10:51:18;7.50;99.90
3360;DHT22;1693;49.602;11.046;2023-02-03T10:53:46;7.40;99.90
3360;DHT22;1693;49.602;11.046;2023-02-03T10:56:19;7.50;99.90
3360;DHT22;1693;49.602;11.046;2023-02-03T10:58:51;7.60;99.90
3360;DHT22;1693;49.602;11.046;2023-02-03T11:01:20;7.50;99.90
3360;DHT22;1693;49.602;11.046;2023-02-03T11:03:57;7.60;99.90
3360;DHT22;1693;49.602;11.046;2023-02-03T11:11:29;7.60;99.90
3360;DHT22;1693;49.602;11.046;2023-02-03T11:14:14;7.70;99.90
3360;DHT22;1693;49.602;11.046;2023-02-03T11:16:42;7.60;99.90
3360;DHT22;1693;49.602;11.046;2023-02-03T11:19:15;7.60;99.90
3360;DHT22;1693;49.602;11.046;2023-02-03T11:21:44;7.70;99.90
3360;DHT22;1693;49.602;11.046;2023-02-03T11:24:17;7.70;99.90
3360;DHT22;1693;49.602;11.046;2023-02-03T11:26:48;7.70;99.90
3360;DHT22;1693;49.602;11.046;2023-02-03T11:29:21;7.70;99.90
3360;DHT22;1693;49.602;11.046;2023-02-03T11:31:52;7.70;99.90
3360;DHT22;1693;49.602;11.046;2023-02-03T11:34:23;7.70;99.90
3360;DHT22;1693;49.602;11.046;2023-02-03T11:36:51;7.60;99.90
3360;DHT22;1693;49.602;11.046;2023-02-03T11:39:23;7.60;99.90
3360;DHT22;1693;49.602;11.046;2023-02-03T11:41:51;7.50;99.90
3360;DHT22;1693;49.602;11.046;2023-02-03T11:44:22;7.60;99.90
3360;DHT22;1693;49.602;11.046;2023-02-03T11:46:54;7.60;99.90
3360;DHT22;1693;49.602;11.046;2023-02-03T11:49:53;7.60;99.90
3360;DHT22;1693;49.602;11.046;2023-02-03T11:52:41;7.50;99.90
3360;DHT22;1693;49.602;11.046;2023-02-03T11:55:26;7.60;99.90
3360;DHT22;1693;49.602;11.046;2023-02-03T11:58:07;7.50;99.90
3360;DHT22;1693;49.602;11.046;2023-02-03T12:00:45;7.50;99.90
3360;DHT22;1693;49.602;11.046;2023-02-03T12:06:13;7.50;99.90
3360;DHT22;1693;49.602;11.046;2023-02-03T12:09:01;7.40;99.90
3360;DHT22;1693;49.602;11.046;2023-02-03T12:11:44;7.50;99.90
3360;DHT22;1693;49.602;11.046;2023-02-03T12:14:34;7.50;99.90
3360;DHT22;1693;49.602;11.046;2023-02-03T12:17:35;7.50;99.90
3360;DHT22;1693;49.602;11.046;2023-02-03T12:20:28;7.40;99.90
3360;DHT22;1693;49.602;11.046;2023-02-03T12:23:06;7.40;99.90
3360;DHT22;1693;49.602;11.046;2023-02-03T12:25:42;7.40;99.90
3360;DHT22;1693;49.602;11.046;2023-02-03T12:28:23;7.40;99.90
3360;DHT22;1693;49.602;11.046;2023-02-03T12:30:58;7.40;99.90
3360;DHT22;1693;49.602;11.046;2023-02-03T12:33:33;7.30;99.90
3360;DHT22;1693;49.602;11.046;2023-02-03T12:36:07;7.30;99.90
3360;DHT22;1693;49.602;11.046;2023-02-03T12:38:40;7.40;99.90
3360;DHT22;1693;49.602;11.046;2023-02-03T12:41:12;7.30;99.90
3360;DHT22;1693;49.602;11.046;2023-02-03T12:43:43;7.30;99.90
3360;DHT22;1693;49.602;11.046;2023-02-03T12:46:17;7.30;99.90
3360;DHT22;1693;49.602;11.046;2023-02-03T12:48:53;7.30;99.90
3360;DHT22;1693;49.602;11.046;2023-02-03T12:51:39;7.30;99.90
3360;DHT22;1693;49.602;11.046;2023-02-03T12:54:17;7.30;99.90
3360;DHT22;1693;49.602;11.046;2023-02-03T12:56:47;7.30;99.90
3360;DHT22;1693;49.602;11.046;2023-02-03T12:59:21;7.30;99.90
3360;DHT22;1693;49.602;11.046;2023-02-03T13:01:55;7.30;99.90
3360;DHT22;1693;49.602;11.046;2023-02-03T13:04:33;7.20;99.90
3360;DHT22;1693;49.602;11.046;2023-02-03T13:07:07;7.20;99.90
3360;DHT22;1693;49.602;11.046;2023-02-03T13:09:48;7.20;99.90
3360;DHT22;1693;49.602;11.046;2023-02-03T13:12:26;7.20;99.90
3360;DHT22;1693;49.602;11.046;2023-02-03T13:15:16;7.20;99.90
3360;DHT22;1693;49.602;11.046;2023-02-03T13:17:51;7.20;99.90
3360;DHT22;1693;49.602;11.046;2023-02-03T13:20:24;7.10;99.90
3360;DHT22;1693;49.602;11.046;2023-02-03T13:22:52;7.10;99.90
3360;DHT22;1693;49.602;11.046;2023-02-03T13:25:23;7.00;99.90
3360;DHT22;1693;49.602;11.046;2023-02-03T13:28:01;7.00;99.90
3360;DHT22;1693;49.602;11.046;2023-02-03T13:30:45;7.00;99.90
3360;DHT22;1693;49.602;11.046;2023-02-03T13:33:53;6.80;99.90
3360;DHT22;1693;49.602;11.046;2023-02-03T13:36:40;6.70;99.90
3360;DHT22;1693;49.602;11.046;2023-02-03T13:39:41;6.70;99.90
3360;DHT22;1693;49.602;11.046;2023-02-03T13:42:29;6.60;99.90
3360;DHT22;1693;49.602;11.046;2023-02-03T13:45:08;6.60;99.90
3360;DHT22;1693;49.602;11.046;2023-02-03T13:47:36;6.60;99.90
3360;DHT22;1693;49.602;11.046;2023-02-03T13:50:16;6.50;99.90
3360;DHT22;1693;49.602;11.046;2023-02-03T13:52:54;6.60;99.90
3360;DHT22;1693;49.602;11.046;2023-02-03T13:55:34;6.60;99.90
3360;DHT22;1693;49.602;11.046;2023-02-03T13:58:03;6.60;99.90
3360;DHT22;1693;49.602;11.046;2023-02-03T14:03:46;6.70;99.90
3360;DHT22;1693;49.602;11.046;2023-02-03T14:09:38;6.80;99.90
3360;DHT22;1693;49.602;11.046;2023-02-03T14:15:36;6.70;99.90
3360;DHT22;1693;49.602;11.046;2023-02-03T14:18:35;6.70;99.90
3360;DHT22;1693;49.602;11.046;2023-02-03T14:21:16;6.70;99.90
3360;DHT22;1693;49.602;11.046;2023-02-03T14:24:04;6.70;99.90
3360;DHT22;1693;49.602;11.046;2023-02-03T14:26:36;6.80;99.90
3360;DHT22;1693;49.602;11.046;2023-02-03T14:29:07;6.80;99.90
3360;DHT22;1693;49.602;11.046;2023-02-03T14:31:53;6.80;99.90
3360;DHT22;1693;49.602;11.046;2023-02-03T14:34:37;6.80;99.90
3360;DHT22;1693;49.602;11.046;2023-02-03T14:37:20;6.70;99.90
3360;DHT22;1693;49.602;11.046;2023-02-03T14:40:15;6.70;99.90
3360;DHT22;1693;49.602;11.046;2023-02-03T14:43:00;6.60;99.90
3360;DHT22;1693;49.602;11.046;2023-02-03T14:45:48;6.60;99.90
3360;DHT22;1693;49.602;11.046;2023-02-03T14:51:30;6.50;99.90
3360;DHT22;1693;49.602;11.046;2023-02-03T14:54:21;6.50;99.90
3360;DHT22;1693;49.602;11.046;2023-02-03T14:57:08;6.50;99.90
3360;DHT22;1693;49.602;11.046;2023-02-03T14:59:47;6.50;99.90
3360;DHT22;1693;49.602;11.046;2023-02-03T15:02:19;6.50;99.90
3360;DHT22;1693;49.602;11.046;2023-02-03T15:07:53;6.50;99.90
3360;DHT22;1693;49.602;11.046;2023-02-03T15:10:23;6.50;99.90
3360;DHT22;1693;49.602;11.046;2023-02-03T15:12:51;6.50;99.90
3360;DHT22;1693;49.602;11.046;2023-02-03T15:15:32;6.50;99.90
3360;DHT22;1693;49.602;11.046;2023-02-03T15:18:18;6.40;99.90
3360;DHT22;1693;49.602;11.046;2023-02-03T15:20:51;6.50;99.90
3360;DHT22;1693;49.602;11.046;2023-02-03T15:23:20;6.50;99.90
3360;DHT22;1693;49.602;11.046;2023-02-03T15:25:53;6.50;99.90
3360;DHT22;1693;49.602;11.046;2023-02-03T15:28:22;6.50;99.90
3360;DHT22;1693;49.602;11.046;2023-02-03T15:30:54;6.50;99.90
3360;DHT22;1693;49.602;11.046;2023-02-03T15:33:22;6.50;99.90
3360;DHT22;1693;49.602;11.046;2023-02-03T15:35:53;6.50;99.90
3360;DHT22;1693;49.602;11.046;2023-02-03T15:38:25;6.50;99.90
3360;DHT22;1693;49.602;11.046;2023-02-03T15:40:54;6.50;99.90
3360;DHT22;1693;49.602;11.046;2023-02-03T15:43:26;6.50;99.90
3360;DHT22;1693;49.602;11.046;2023-02-03T15:46:02;6.60;99.90
3360;DHT22;1693;49.602;11.046;2023-02-03T15:48:34;6.60;99.90
3360;DHT22;1693;49.602;11.046;2023-02-03T15:51:06;6.60;99.90
3360;DHT22;1693;49.602;11.046;2023-02-03T15:53:44;6.60;99.90
3360;DHT22;1693;49.602;11.046;2023-02-03T15:56:19;6.60;99.90
3360;DHT22;1693;49.602;11.046;2023-02-03T15:58:48;6.60;99.90
3360;DHT22;1693;49.602;11.046;2023-02-03T16:01:20;6.60;99.90
3360;DHT22;1693;49.602;11.046;2023-02-03T16:03:51;6.60;99.90
3360;DHT22;1693;49.602;11.046;2023-02-03T16:06:24;6.50;99.90
3360;DHT22;1693;49.602;11.046;2023-02-03T16:08:53;6.60;99.90
3360;DHT22;1693;49.602;11.046;2023-02-03T16:11:25;6.50;99.90
3360;DHT22;1693;49.602;11.046;2023-02-03T16:13:54;6.50;99.90
3360;DHT22;1693;49.602;11.046;2023-02-03T16:16:25;6.60;99.90
3360;DHT22;1693;49.602;11.046;2023-02-03T16:18:54;6.60;99.90
3360;DHT22;1693;49.602;11.046;2023-02-03T16:21:31;6.60;99.90
3360;DHT22;1693;49.602;11.046;2023-02-03T16:23:58;6.60;99.90
3360;DHT22;1693;49.602;11.046;2023-02-03T16:26:29;6.60;99.90
3360;DHT22;1693;49.602;11.046;2023-02-03T16:29:10;6.60;99.90
3360;DHT22;1693;49.602;11.046;2023-02-03T16:31:57;6.60;99.90
3360;DHT22;1693;49.602;11.046;2023-02-03T16:34:42;6.60;99.90
3360;DHT22;1693;49.602;11.046;2023-02-03T16:37:29;6.60;99.90
3360;DHT22;1693;49.602;11.046;2023-02-03T16:40:17;6.60;99.90
3360;DHT22;1693;49.602;11.046;2023-02-03T16:43:02;6.60;99.90
3360;DHT22;1693;49.602;11.046;2023-02-03T16:45:53;6.70;99.90
3360;DHT22;1693;49.602;11.046;2023-02-03T16:48:40;6.60;99.90
3360;DHT22;1693;49.602;11.046;2023-02-03T16:51:27;6.70;99.90
3360;DHT22;1693;49.602;11.046;2023-02-03T16:53:54;6.70;99.90
3360;DHT22;1693;49.602;11.046;2023-02-03T16:56:21;6.70;99.90
3360;DHT22;1693;49.602;11.046;2023-02-03T16:58:48;6.70;99.90
3360;DHT22;1693;49.602;11.046;2023-02-03T17:01:16;6.60;99.90
3360;DHT22;1693;49.602;11.046;2023-02-03T17:03:44;6.60;99.90
3360;DHT22;1693;49.602;11.046;2023-02-03T17:06:12;6.70;99.90
3360;DHT22;1693;49.602;11.046;2023-02-03T17:08:40;6.60;99.90
3360;DHT22;1693;49.602;11.046;2023-02-03T17:11:13;6.70;99.90